sensor_id;sensor_type;location;lat;lon;timestamp;P1;durP1;ratioP1;P2;durP2;ratioP2
7985;SDS011;4038;42.612;23.066;2023-03-14T00:01:17;28.40;;;25.57;;
7985;SDS011;4038;42.612;23.066;2023-03-14T00:03:42;28.07;;;25.43;;
7985;SDS011;4038;42.612;23.066;2023-03-14T00:06:08;28.73;;;26.00;;
7985;SDS011;4038;42.612;23.066;2023-03-14T00:08:34;27.57;;;25.27;;
7985;SDS011;4038;42.612;23.066;2023-03-14T00:11:09;28.53;;;26.00;;
7985;SDS011;4038;42.612;23.066;2023-03-14T00:13:35;28.73;;;25.97;;
7985;SDS011;4038;42.612;23.066;2023-03-14T00:16:01;29.37;;;26.57;;
7985;SDS011;4038;42.612;23.066;2023-03-14T00:18:27;31.97;;;29.07;;
7985;SDS011;4038;42.612;23.066;2023-03-14T00:20:52;26.20;;;24.20;;
7985;SDS011;4038;42.612;23.066;2023-03-14T00:23:18;29.20;;;26.70;;
7985;SDS011;4038;42.612;23.066;2023-03-14T00:25:43;27.67;;;25.37;;
7985;SDS011;4038;42.612;23.066;2023-03-14T00:28:08;28.53;;;26.23;;
7985;SDS011;4038;42.612;23.066;2023-03-14T00:30:33;29.50;;;26.90;;
7985;SDS011;4038;42.612;23.066;2023-03-14T00:32:59;28.77;;;26.23;;
7985;SDS011;4038;42.612;23.066;2023-03-14T00:35:24;28.97;;;26.37;;
7985;SDS011;4038;42.612;23.066;2023-03-14T00:37:49;30.30;;;27.63;;
7985;SDS011;4038;42.612;23.066;2023-03-14T00:40:14;28.53;;;26.20;;
7985;SDS011;4038;42.612;23.066;2023-03-14T00:42:40;28.47;;;25.93;;
7985;SDS011;4038;42.612;23.066;2023-03-14T00:45:05;29.23;;;26.53;;
7985;SDS011;4038;42.612;23.066;2023-03-14T00:47:32;27.77;;;25.17;;
7985;SDS011;4038;42.612;23.066;2023-03-14T00:49:58;29.50;;;26.87;;
7985;SDS011;4038;42.612;23.066;2023-03-14T00:52:23;30.30;;;27.33;;
7985;SDS011;4038;42.612;23.066;2023-03-14T00:54:48;34.13;;;30.73;;
7985;SDS011;4038;42.612;23.066;2023-03-14T00:57:14;32.93;;;29.60;;
7985;SDS011;4038;42.612;23.066;2023-03-14T00:59:39;33.93;;;30.27;;
7985;SDS011;4038;42.612;23.066;2023-03-14T01:02:04;35.17;;;31.57;;
7985;SDS011;4038;42.612;23.066;2023-03-14T01:04:29;36.80;;;32.67;;
7985;SDS011;4038;42.612;23.066;2023-03-14T01:06:56;35.37;;;31.87;;
7985;SDS011;4038;42.612;23.066;2023-03-14T01:09:21;34.97;;;31.23;;
7985;SDS011;4038;42.612;23.066;2023-03-14T01:11:46;34.67;;;31.30;;
7985;SDS011;4038;42.612;23.066;2023-03-14T01:14:12;33.63;;;30.37;;
7985;SDS011;4038;42.612;23.066;2023-03-14T01:16:37;33.23;;;29.80;;
7985;SDS011;4038;42.612;23.066;2023-03-14T01:19:02;31.40;;;28.07;;
7985;SDS011;4038;42.612;23.066;2023-03-14T01:21:29;33.43;;;29.77;;
7985;SDS011;4038;42.612;23.066;2023-03-14T01:23:55;32.70;;;29.07;;
7985;SDS011;4038;42.612;23.066;2023-03-14T01:26:21;27.87;;;25.23;;
7985;SDS011;4038;42.612;23.066;2023-03-14T01:28:48;28.07;;;25.73;;
7985;SDS011;4038;42.612;23.066;2023-03-14T01:31:13;33.20;;;29.63;;
7985;SDS011;4038;42.612;23.066;2023-03-14T01:33:39;32.47;;;29.37;;
7985;SDS011;4038;42.612;23.066;2023-03-14T01:36:05;29.93;;;27.50;;
7985;SDS011;4038;42.612;23.066;2023-03-14T01:38:31;38.67;;;34.53;;
7985;SDS011;4038;42.612;23.066;2023-03-14T01:40:57;46.00;;;35.43;;
7985;SDS011;4038;42.612;23.066;2023-03-14T01:43:23;45.00;;;39.17;;
7985;SDS011;4038;42.612;23.066;2023-03-14T01:48:42;40.50;;;35.60;;
7985;SDS011;4038;42.612;23.066;2023-03-14T01:51:09;46.77;;;38.40;;
7985;SDS011;4038;42.612;23.066;2023-03-14T01:53:36;44.27;;;39.57;;
7985;SDS011;4038;42.612;23.066;2023-03-14T01:56:02;42.47;;;37.57;;
7985;SDS011;4038;42.612;23.066;2023-03-14T01:58:28;42.90;;;36.60;;
7985;SDS011;4038;42.612;23.066;2023-03-14T02:00:56;35.73;;;32.13;;
7985;SDS011;4038;42.612;23.066;2023-03-14T02:03:22;41.70;;;37.20;;
7985;SDS011;4038;42.612;23.066;2023-03-14T02:05:49;40.60;;;36.43;;
7985;SDS011;4038;42.612;23.066;2023-03-14T02:08:16;36.93;;;33.00;;
7985;SDS011;4038;42.612;23.066;2023-03-14T02:10:43;37.20;;;30.73;;
7985;SDS011;4038;42.612;23.066;2023-03-14T02:13:09;34.43;;;31.00;;
7985;SDS011;4038;42.612;23.066;2023-03-14T02:15:35;34.77;;;31.37;;
7985;SDS011;4038;42.612;23.066;2023-03-14T02:18:01;39.00;;;34.73;;
7985;SDS011;4038;42.612;23.066;2023-03-14T02:20:42;37.93;;;34.00;;
7985;SDS011;4038;42.612;23.066;2023-03-14T02:23:10;38.97;;;32.80;;
7985;SDS011;4038;42.612;23.066;2023-03-14T02:25:48;37.20;;;33.60;;
7985;SDS011;4038;42.612;23.066;2023-03-14T02:28:15;36.60;;;32.73;;
7985;SDS011;4038;42.612;23.066;2023-03-14T02:30:41;37.20;;;33.17;;
7985;SDS011;4038;42.612;23.066;2023-03-14T02:33:10;37.63;;;33.07;;
7985;SDS011;4038;42.612;23.066;2023-03-14T02:41:00;36.23;;;32.70;;
7985;SDS011;4038;42.612;23.066;2023-03-14T02:43:25;43.53;;;35.00;;
7985;SDS011;4038;42.612;23.066;2023-03-14T02:45:51;40.33;;;36.10;;
7985;SDS011;4038;42.612;23.066;2023-03-14T02:48:30;43.50;;;37.93;;
7985;SDS011;4038;42.612;23.066;2023-03-14T02:50:57;39.93;;;33.27;;
7985;SDS011;4038;42.612;23.066;2023-03-14T02:53:27;37.07;;;33.03;;
7985;SDS011;4038;42.612;23.066;2023-03-14T02:55:54;37.57;;;33.77;;
7985;SDS011;4038;42.612;23.066;2023-03-14T02:58:19;37.53;;;33.57;;
7985;SDS011;4038;42.612;23.066;2023-03-14T03:00:45;38.53;;;34.43;;
7985;SDS011;4038;42.612;23.066;2023-03-14T03:03:10;45.47;;;34.47;;
7985;SDS011;4038;42.612;23.066;2023-03-14T03:05:36;38.27;;;34.17;;
7985;SDS011;4038;42.612;23.066;2023-03-14T03:08:01;35.60;;;31.13;;
7985;SDS011;4038;42.612;23.066;2023-03-14T03:10:26;34.57;;;31.20;;
7985;SDS011;4038;42.612;23.066;2023-03-14T03:12:52;34.33;;;30.83;;
7985;SDS011;4038;42.612;23.066;2023-03-14T03:15:17;34.73;;;31.23;;
7985;SDS011;4038;42.612;23.066;2023-03-14T03:17:42;34.43;;;31.20;;
7985;SDS011;4038;42.612;23.066;2023-03-14T03:20:08;34.07;;;30.53;;
7985;SDS011;4038;42.612;23.066;2023-03-14T03:22:34;30.93;;;28.03;;
7985;SDS011;4038;42.612;23.066;2023-03-14T03:24:59;31.60;;;28.60;;
7985;SDS011;4038;42.612;23.066;2023-03-14T03:27:25;30.33;;;27.63;;
7985;SDS011;4038;42.612;23.066;2023-03-14T03:29:50;32.80;;;29.37;;
7985;SDS011;4038;42.612;23.066;2023-03-14T03:32:15;30.60;;;27.83;;
7985;SDS011;4038;42.612;23.066;2023-03-14T03:34:40;32.53;;;29.10;;
7985;SDS011;4038;42.612;23.066;2023-03-14T03:37:06;34.07;;;30.60;;
7985;SDS011;4038;42.612;23.066;2023-03-14T03:39:31;33.03;;;29.80;;
7985;SDS011;4038;42.612;23.066;2023-03-14T03:41:56;33.60;;;30.20;;
7985;SDS011;4038;42.612;23.066;2023-03-14T03:44:21;33.47;;;30.03;;
7985;SDS011;4038;42.612;23.066;2023-03-14T03:46:47;33.47;;;29.83;;
7985;SDS011;4038;42.612;23.066;2023-03-14T03:49:12;32.87;;;29.43;;
7985;SDS011;4038;42.612;23.066;2023-03-14T03:51:37;35.87;;;32.10;;
7985;SDS011;4038;42.612;23.066;2023-03-14T03:54:02;35.87;;;32.10;;
7985;SDS011;4038;42.612;23.066;2023-03-14T03:56:28;38.07;;;33.97;;
7985;SDS011;4038;42.612;23.066;2023-03-14T03:58:53;42.60;;;33.97;;
7985;SDS011;4038;42.612;23.066;2023-03-14T04:01:18;36.50;;;32.73;;
7985;SDS011;4038;42.612;23.066;2023-03-14T04:03:43;39.53;;;33.20;;
7985;SDS011;4038;42.612;23.066;2023-03-14T04:06:10;38.30;;;32.03;;
7985;SDS011;4038;42.612;23.066;2023-03-14T04:08:36;34.73;;;31.00;;
7985;SDS011;4038;42.612;23.066;2023-03-14T04:11:02;31.77;;;28.73;;
7985;SDS011;4038;42.612;23.066;2023-03-14T04:13:28;35.47;;;31.17;;
7985;SDS011;4038;42.612;23.066;2023-03-14T04:15:53;29.80;;;27.13;;
7985;SDS011;4038;42.612;23.066;2023-03-14T04:18:19;30.00;;;27.40;;
7985;SDS011;4038;42.612;23.066;2023-03-14T04:20:44;30.87;;;27.97;;
7985;SDS011;4038;42.612;23.066;2023-03-14T04:23:10;29.33;;;26.40;;
7985;SDS011;4038;42.612;23.066;2023-03-14T04:25:35;29.87;;;26.80;;
7985;SDS011;4038;42.612;23.066;2023-03-14T04:28:00;30.70;;;27.70;;
7985;SDS011;4038;42.612;23.066;2023-03-14T04:30:26;39.67;;;27.03;;
7985;SDS011;4038;42.612;23.066;2023-03-14T04:32:51;29.77;;;26.77;;
7985;SDS011;4038;42.612;23.066;2023-03-14T04:35:16;30.07;;;27.13;;
7985;SDS011;4038;42.612;23.066;2023-03-14T04:37:41;28.73;;;26.03;;
7985;SDS011;4038;42.612;23.066;2023-03-14T04:40:08;30.17;;;27.03;;
7985;SDS011;4038;42.612;23.066;2023-03-14T04:42:33;29.50;;;26.67;;
7985;SDS011;4038;42.612;23.066;2023-03-14T04:44:59;30.63;;;26.40;;
7985;SDS011;4038;42.612;23.066;2023-03-14T04:47:25;29.17;;;26.53;;
7985;SDS011;4038;42.612;23.066;2023-03-14T04:49:50;29.67;;;27.07;;
7985;SDS011;4038;42.612;23.066;2023-03-14T04:52:15;28.80;;;25.87;;
7985;SDS011;4038;42.612;23.066;2023-03-14T04:54:41;28.10;;;25.37;;
7985;SDS011;4038;42.612;23.066;2023-03-14T04:57:06;31.27;;;27.90;;
7985;SDS011;4038;42.612;23.066;2023-03-14T04:59:31;37.10;;;29.47;;
7985;SDS011;4038;42.612;23.066;2023-03-14T05:01:56;30.60;;;27.67;;
7985;SDS011;4038;42.612;23.066;2023-03-14T05:04:21;34.67;;;29.63;;
7985;SDS011;4038;42.612;23.066;2023-03-14T05:06:47;33.63;;;30.20;;
7985;SDS011;4038;42.612;23.066;2023-03-14T05:09:12;38.90;;;31.80;;
7985;SDS011;4038;42.612;23.066;2023-03-14T05:11:37;35.70;;;31.87;;
7985;SDS011;4038;42.612;23.066;2023-03-14T05:14:02;34.83;;;31.23;;
7985;SDS011;4038;42.612;23.066;2023-03-14T05:16:28;33.37;;;29.93;;
7985;SDS011;4038;42.612;23.066;2023-03-14T05:18:53;38.93;;;31.97;;
7985;SDS011;4038;42.612;23.066;2023-03-14T05:21:18;37.43;;;33.47;;
7985;SDS011;4038;42.612;23.066;2023-03-14T05:23:44;43.63;;;33.40;;
7985;SDS011;4038;42.612;23.066;2023-03-14T05:26:09;36.13;;;32.53;;
7985;SDS011;4038;42.612;23.066;2023-03-14T05:28:34;38.13;;;33.93;;
7985;SDS011;4038;42.612;23.066;2023-03-14T05:30:59;35.83;;;32.10;;
7985;SDS011;4038;42.612;23.066;2023-03-14T05:33:24;41.13;;;34.63;;
7985;SDS011;4038;42.612;23.066;2023-03-14T05:35:50;42.57;;;36.63;;
7985;SDS011;4038;42.612;23.066;2023-03-14T05:38:15;42.87;;;38.30;;
7985;SDS011;4038;42.612;23.066;2023-03-14T05:40:40;48.57;;;39.90;;
7985;SDS011;4038;42.612;23.066;2023-03-14T05:43:05;44.93;;;40.10;;
7985;SDS011;4038;42.612;23.066;2023-03-14T05:45:33;46.13;;;39.93;;
7985;SDS011;4038;42.612;23.066;2023-03-14T05:47:58;39.93;;;35.93;;
7985;SDS011;4038;42.612;23.066;2023-03-14T05:50:23;42.27;;;37.20;;
7985;SDS011;4038;42.612;23.066;2023-03-14T05:52:48;44.10;;;38.10;;
7985;SDS011;4038;42.612;23.066;2023-03-14T05:55:14;48.77;;;38.50;;
7985;SDS011;4038;42.612;23.066;2023-03-14T05:57:39;52.63;;;39.53;;
7985;SDS011;4038;42.612;23.066;2023-03-14T06:00:05;46.97;;;39.13;;
7985;SDS011;4038;42.612;23.066;2023-03-14T06:02:31;48.47;;;39.87;;
7985;SDS011;4038;42.612;23.066;2023-03-14T06:04:56;46.57;;;37.20;;
7985;SDS011;4038;42.612;23.066;2023-03-14T06:07:21;45.27;;;38.17;;
7985;SDS011;4038;42.612;23.066;2023-03-14T06:09:46;50.17;;;38.80;;
7985;SDS011;4038;42.612;23.066;2023-03-14T06:12:12;44.93;;;39.93;;
7985;SDS011;4038;42.612;23.066;2023-03-14T06:14:37;41.87;;;37.10;;
7985;SDS011;4038;42.612;23.066;2023-03-14T06:17:02;40.17;;;33.67;;
7985;SDS011;4038;42.612;23.066;2023-03-14T06:19:28;37.97;;;33.97;;
7985;SDS011;4038;42.612;23.066;2023-03-14T06:21:53;38.60;;;34.77;;
7985;SDS011;4038;42.612;23.066;2023-03-14T06:24:18;37.23;;;33.80;;
7985;SDS011;4038;42.612;23.066;2023-03-14T06:26:43;39.37;;;35.43;;
7985;SDS011;4038;42.612;23.066;2023-03-14T06:29:09;38.07;;;34.17;;
7985;SDS011;4038;42.612;23.066;2023-03-14T06:31:35;35.00;;;31.63;;
7985;SDS011;4038;42.612;23.066;2023-03-14T06:34:00;36.07;;;32.30;;
7985;SDS011;4038;42.612;23.066;2023-03-14T06:36:25;36.53;;;32.73;;
7985;SDS011;4038;42.612;23.066;2023-03-14T06:38:51;37.90;;;32.80;;
7985;SDS011;4038;42.612;23.066;2023-03-14T06:41:16;37.20;;;33.47;;
7985;SDS011;4038;42.612;23.066;2023-03-14T06:43:41;37.70;;;33.65;;
7985;SDS011;4038;42.612;23.066;2023-03-14T06:46:06;37.85;;;34.08;;
7985;SDS011;4038;42.612;23.066;2023-03-14T06:48:32;37.63;;;33.90;;
7985;SDS011;4038;42.612;23.066;2023-03-14T06:50:57;38.22;;;33.53;;
7985;SDS011;4038;42.612;23.066;2023-03-14T06:53:22;39.25;;;34.00;;
7985;SDS011;4038;42.612;23.066;2023-03-14T06:55:47;37.25;;;33.63;;
7985;SDS011;4038;42.612;23.066;2023-03-14T06:58:13;42.13;;;37.85;;
7985;SDS011;4038;42.612;23.066;2023-03-14T07:00:38;39.80;;;35.85;;
7985;SDS011;4038;42.612;23.066;2023-03-14T07:03:03;38.75;;;34.88;;
7985;SDS011;4038;42.612;23.066;2023-03-14T07:05:29;43.13;;;38.72;;
7985;SDS011;4038;42.612;23.066;2023-03-14T07:07:54;41.50;;;37.72;;
7985;SDS011;4038;42.612;23.066;2023-03-14T07:10:19;40.33;;;36.53;;
7985;SDS011;4038;42.612;23.066;2023-03-14T07:12:45;38.33;;;34.72;;
7985;SDS011;4038;42.612;23.066;2023-03-14T07:15:10;37.65;;;34.20;;
7985;SDS011;4038;42.612;23.066;2023-03-14T07:17:36;37.00;;;33.70;;
7985;SDS011;4038;42.612;23.066;2023-03-14T07:20:01;37.40;;;34.00;;
7985;SDS011;4038;42.612;23.066;2023-03-14T07:22:28;36.65;;;32.97;;
7985;SDS011;4038;42.612;23.066;2023-03-14T07:24:53;34.03;;;30.77;;
7985;SDS011;4038;42.612;23.066;2023-03-14T07:27:18;33.50;;;30.40;;
7985;SDS011;4038;42.612;23.066;2023-03-14T07:29:43;34.50;;;31.52;;
7985;SDS011;4038;42.612;23.066;2023-03-14T07:32:09;33.63;;;30.00;;
7985;SDS011;4038;42.612;23.066;2023-03-14T07:34:34;33.55;;;30.38;;
7985;SDS011;4038;42.612;23.066;2023-03-14T07:36:59;34.20;;;30.88;;
7985;SDS011;4038;42.612;23.066;2023-03-14T07:39:25;32.67;;;29.77;;
7985;SDS011;4038;42.612;23.066;2023-03-14T07:41:50;33.50;;;30.50;;
7985;SDS011;4038;42.612;23.066;2023-03-14T07:44:15;31.70;;;28.42;;
7985;SDS011;4038;42.612;23.066;2023-03-14T07:46:40;31.95;;;28.85;;
7985;SDS011;4038;42.612;23.066;2023-03-14T07:49:06;31.13;;;28.23;;
7985;SDS011;4038;42.612;23.066;2023-03-14T07:51:31;30.48;;;27.75;;
7985;SDS011;4038;42.612;23.066;2023-03-14T07:53:56;31.83;;;28.52;;
7985;SDS011;4038;42.612;23.066;2023-03-14T07:56:22;31.40;;;28.15;;
7985;SDS011;4038;42.612;23.066;2023-03-14T07:58:47;31.08;;;28.20;;
7985;SDS011;4038;42.612;23.066;2023-03-14T08:01:12;30.83;;;27.58;;
7985;SDS011;4038;42.612;23.066;2023-03-14T08:03:37;30.25;;;27.17;;
7985;SDS011;4038;42.612;23.066;2023-03-14T08:06:03;31.15;;;27.70;;
7985;SDS011;4038;42.612;23.066;2023-03-14T08:08:28;29.27;;;26.52;;
7985;SDS011;4038;42.612;23.066;2023-03-14T08:10:53;30.50;;;27.60;;
7985;SDS011;4038;42.612;23.066;2023-03-14T08:13:18;28.95;;;26.05;;
7985;SDS011;4038;42.612;23.066;2023-03-14T08:15:47;30.60;;;26.42;;
7985;SDS011;4038;42.612;23.066;2023-03-14T08:18:12;28.42;;;24.77;;
7985;SDS011;4038;42.612;23.066;2023-03-14T08:20:37;27.55;;;25.05;;
7985;SDS011;4038;42.612;23.066;2023-03-14T08:23:03;28.02;;;25.83;;
7985;SDS011;4038;42.612;23.066;2023-03-14T08:25:28;27.15;;;24.73;;
7985;SDS011;4038;42.612;23.066;2023-03-14T08:27:53;27.08;;;24.70;;
7985;SDS011;4038;42.612;23.066;2023-03-14T08:30:19;26.27;;;23.83;;
7985;SDS011;4038;42.612;23.066;2023-03-14T08:32:45;26.35;;;23.77;;
7985;SDS011;4038;42.612;23.066;2023-03-14T08:35:10;27.02;;;24.58;;
7985;SDS011;4038;42.612;23.066;2023-03-14T08:37:35;26.45;;;24.13;;
7985;SDS011;4038;42.612;23.066;2023-03-14T08:40:01;26.48;;;24.23;;
7985;SDS011;4038;42.612;23.066;2023-03-14T08:42:31;27.27;;;24.77;;
7985;SDS011;4038;42.612;23.066;2023-03-14T08:44:56;28.10;;;25.75;;
7985;SDS011;4038;42.612;23.066;2023-03-14T08:47:21;27.13;;;25.02;;
7985;SDS011;4038;42.612;23.066;2023-03-14T08:49:46;27.42;;;25.15;;
7985;SDS011;4038;42.612;23.066;2023-03-14T08:52:19;27.30;;;24.95;;
7985;SDS011;4038;42.612;23.066;2023-03-14T08:54:44;28.02;;;25.52;;
7985;SDS011;4038;42.612;23.066;2023-03-14T08:57:10;27.92;;;25.55;;
7985;SDS011;4038;42.612;23.066;2023-03-14T08:59:35;28.45;;;26.15;;
7985;SDS011;4038;42.612;23.066;2023-03-14T09:02:01;27.75;;;25.27;;
7985;SDS011;4038;42.612;23.066;2023-03-14T09:04:28;26.38;;;24.25;;
7985;SDS011;4038;42.612;23.066;2023-03-14T09:06:54;28.40;;;26.20;;
7985;SDS011;4038;42.612;23.066;2023-03-14T09:09:19;27.75;;;25.65;;
7985;SDS011;4038;42.612;23.066;2023-03-14T09:11:44;27.73;;;24.67;;
7985;SDS011;4038;42.612;23.066;2023-03-14T09:14:09;27.40;;;24.67;;
7985;SDS011;4038;42.612;23.066;2023-03-14T09:16:35;29.48;;;26.90;;
7985;SDS011;4038;42.612;23.066;2023-03-14T09:19:00;30.15;;;27.75;;
7985;SDS011;4038;42.612;23.066;2023-03-14T09:21:26;27.85;;;25.75;;
7985;SDS011;4038;42.612;23.066;2023-03-14T09:23:52;28.98;;;26.65;;
7985;SDS011;4038;42.612;23.066;2023-03-14T09:26:17;27.48;;;25.33;;
7985;SDS011;4038;42.612;23.066;2023-03-14T09:28:43;28.42;;;26.05;;
7985;SDS011;4038;42.612;23.066;2023-03-14T09:31:09;29.35;;;26.77;;
7985;SDS011;4038;42.612;23.066;2023-03-14T09:33:35;28.08;;;25.85;;
7985;SDS011;4038;42.612;23.066;2023-03-14T09:36:00;27.70;;;25.40;;
7985;SDS011;4038;42.612;23.066;2023-03-14T09:38:26;26.88;;;24.27;;
7985;SDS011;4038;42.612;23.066;2023-03-14T09:40:52;27.05;;;24.65;;
7985;SDS011;4038;42.612;23.066;2023-03-14T09:43:18;26.88;;;24.75;;
7985;SDS011;4038;42.612;23.066;2023-03-14T09:45:43;27.30;;;25.02;;
7985;SDS011;4038;42.612;23.066;2023-03-14T09:48:20;30.25;;;27.80;;
7985;SDS011;4038;42.612;23.066;2023-03-14T09:50:47;28.77;;;26.10;;
7985;SDS011;4038;42.612;23.066;2023-03-14T09:53:14;28.40;;;25.98;;
7985;SDS011;4038;42.612;23.066;2023-03-14T09:55:41;28.05;;;26.02;;
7985;SDS011;4038;42.612;23.066;2023-03-14T09:58:11;28.40;;;26.25;;
7985;SDS011;4038;42.612;23.066;2023-03-14T10:00:36;28.55;;;25.95;;
7985;SDS011;4038;42.612;23.066;2023-03-14T10:05:36;27.73;;;25.52;;
7985;SDS011;4038;42.612;23.066;2023-03-14T10:08:01;27.58;;;25.48;;
7985;SDS011;4038;42.612;23.066;2023-03-14T10:10:26;25.65;;;23.77;;
7985;SDS011;4038;42.612;23.066;2023-03-14T10:12:59;27.30;;;25.17;;
7985;SDS011;4038;42.612;23.066;2023-03-14T10:15:26;26.10;;;23.90;;
7985;SDS011;4038;42.612;23.066;2023-03-14T10:17:51;26.30;;;24.50;;
7985;SDS011;4038;42.612;23.066;2023-03-14T10:20:27;26.15;;;24.35;;
7985;SDS011;4038;42.612;23.066;2023-03-14T10:22:57;22.88;;;21.48;;
7985;SDS011;4038;42.612;23.066;2023-03-14T10:25:35;24.45;;;22.63;;
7985;SDS011;4038;42.612;23.066;2023-03-14T10:28:02;23.75;;;22.40;;
7985;SDS011;4038;42.612;23.066;2023-03-14T10:33:07;24.08;;;22.58;;
7985;SDS011;4038;42.612;23.066;2023-03-14T10:35:32;24.70;;;23.25;;
7985;SDS011;4038;42.612;23.066;2023-03-14T10:38:00;24.00;;;22.60;;
7985;SDS011;4038;42.612;23.066;2023-03-14T10:40:59;23.50;;;22.10;;
7985;SDS011;4038;42.612;23.066;2023-03-14T10:43:27;25.10;;;23.58;;
7985;SDS011;4038;42.612;23.066;2023-03-14T10:45:59;25.55;;;23.95;;
7985;SDS011;4038;42.612;23.066;2023-03-14T10:48:36;23.50;;;22.00;;
7985;SDS011;4038;42.612;23.066;2023-03-14T10:53:58;22.58;;;21.17;;
7985;SDS011;4038;42.612;23.066;2023-03-14T10:56:25;23.00;;;21.50;;
7985;SDS011;4038;42.612;23.066;2023-03-14T10:58:52;24.58;;;22.85;;
7985;SDS011;4038;42.612;23.066;2023-03-14T11:03:51;24.05;;;22.55;;
7985;SDS011;4038;42.612;23.066;2023-03-14T11:06:21;21.58;;;20.27;;
7985;SDS011;4038;42.612;23.066;2023-03-14T11:09:10;22.85;;;21.45;;
7985;SDS011;4038;42.612;23.066;2023-03-14T11:11:39;23.35;;;21.85;;
7985;SDS011;4038;42.612;23.066;2023-03-14T11:21:46;22.85;;;21.05;;
7985;SDS011;4038;42.612;23.066;2023-03-14T11:26:48;24.75;;;23.15;;
7985;SDS011;4038;42.612;23.066;2023-03-14T11:29:36;24.17;;;22.73;;
7985;SDS011;4038;42.612;23.066;2023-03-14T11:32:07;23.48;;;21.73;;
7985;SDS011;4038;42.612;23.066;2023-03-14T11:35:08;22.52;;;21.13;;
7985;SDS011;4038;42.612;23.066;2023-03-14T11:37:31;24.60;;;23.10;;
7985;SDS011;4038;42.612;23.066;2023-03-14T11:40:05;25.13;;;23.55;;
7985;SDS011;4038;42.612;23.066;2023-03-14T11:42:33;23.77;;;22.08;;
7985;SDS011;4038;42.612;23.066;2023-03-14T11:44:58;23.30;;;21.63;;
7985;SDS011;4038;42.612;23.066;2023-03-14T11:47:59;23.75;;;22.15;;
7985;SDS011;4038;42.612;23.066;2023-03-14T11:50:17;25.17;;;23.58;;
7985;SDS011;4038;42.612;23.066;2023-03-14T11:52:54;22.20;;;20.58;;
7985;SDS011;4038;42.612;23.066;2023-03-14T11:55:26;22.60;;;21.00;;
7985;SDS011;4038;42.612;23.066;2023-03-14T11:57:53;24.13;;;22.33;;
7985;SDS011;4038;42.612;23.066;2023-03-14T12:00:21;26.10;;;23.77;;
7985;SDS011;4038;42.612;23.066;2023-03-14T12:05:54;22.92;;;21.33;;
7985;SDS011;4038;42.612;23.066;2023-03-14T12:10:50;23.58;;;22.00;;
7985;SDS011;4038;42.612;23.066;2023-03-14T12:13:17;23.77;;;22.17;;
7985;SDS011;4038;42.612;23.066;2023-03-14T12:15:50;23.05;;;21.45;;
7985;SDS011;4038;42.612;23.066;2023-03-14T12:18:20;21.98;;;20.55;;
7985;SDS011;4038;42.612;23.066;2023-03-14T12:20:56;22.88;;;21.48;;
7985;SDS011;4038;42.612;23.066;2023-03-14T12:23:22;23.58;;;21.98;;
7985;SDS011;4038;42.612;23.066;2023-03-14T12:25:49;21.08;;;19.67;;
7985;SDS011;4038;42.612;23.066;2023-03-14T12:28:31;21.02;;;19.63;;
7985;SDS011;4038;42.612;23.066;2023-03-14T12:30:56;22.25;;;20.75;;
7985;SDS011;4038;42.612;23.066;2023-03-14T12:33:28;22.40;;;20.90;;
7985;SDS011;4038;42.612;23.066;2023-03-14T12:35:58;22.33;;;20.90;;
7985;SDS011;4038;42.612;23.066;2023-03-14T12:43:30;23.50;;;21.90;;
7985;SDS011;4038;42.612;23.066;2023-03-14T12:46:14;21.95;;;20.45;;
7985;SDS011;4038;42.612;23.066;2023-03-14T12:48:44;22.30;;;20.60;;
7985;SDS011;4038;42.612;23.066;2023-03-14T12:51:17;22.15;;;20.75;;
7985;SDS011;4038;42.612;23.066;2023-03-14T12:56:22;23.75;;;22.25;;
7985;SDS011;4038;42.612;23.066;2023-03-14T12:58:54;23.80;;;22.02;;
7985;SDS011;4038;42.612;23.066;2023-03-14T13:01:23;24.02;;;22.42;;
7985;SDS011;4038;42.612;23.066;2023-03-14T13:03:53;23.42;;;21.90;;
7985;SDS011;4038;42.612;23.066;2023-03-14T13:11:48;22.77;;;21.27;;
7985;SDS011;4038;42.612;23.066;2023-03-14T13:14:13;22.60;;;21.00;;
7985;SDS011;4038;42.612;23.066;2023-03-14T13:16:38;24.42;;;22.40;;
7985;SDS011;4038;42.612;23.066;2023-03-14T13:19:06;24.42;;;22.83;;
7985;SDS011;4038;42.612;23.066;2023-03-14T13:21:36;24.33;;;22.75;;
7985;SDS011;4038;42.612;23.066;2023-03-14T13:24:03;23.77;;;22.17;;
7985;SDS011;4038;42.612;23.066;2023-03-14T13:26:32;23.42;;;21.73;;
7985;SDS011;4038;42.612;23.066;2023-03-14T13:28:59;23.25;;;21.75;;
7985;SDS011;4038;42.612;23.066;2023-03-14T13:31:24;23.25;;;21.73;;
7985;SDS011;4038;42.612;23.066;2023-03-14T13:33:57;23.38;;;21.83;;
7985;SDS011;4038;42.612;23.066;2023-03-14T13:36:22;21.85;;;20.17;;
7985;SDS011;4038;42.612;23.066;2023-03-14T13:38:54;21.73;;;20.13;;
7985;SDS011;4038;42.612;23.066;2023-03-14T13:41:20;23.52;;;21.85;;
7985;SDS011;4038;42.612;23.066;2023-03-14T13:43:45;22.15;;;20.55;;
7985;SDS011;4038;42.612;23.066;2023-03-14T13:46:19;21.50;;;20.02;;
7985;SDS011;4038;42.612;23.066;2023-03-14T13:48:49;22.17;;;20.48;;
7985;SDS011;4038;42.612;23.066;2023-03-14T13:51:18;22.15;;;20.42;;
7985;SDS011;4038;42.612;23.066;2023-03-14T13:53:45;22.17;;;20.58;;
7985;SDS011;4038;42.612;23.066;2023-03-14T13:56:10;22.08;;;20.20;;
7985;SDS011;4038;42.612;23.066;2023-03-14T13:58:37;22.05;;;20.55;;
7985;SDS011;4038;42.612;23.066;2023-03-14T14:01:25;21.98;;;20.55;;
7985;SDS011;4038;42.612;23.066;2023-03-14T14:03:52;22.33;;;20.75;;
7985;SDS011;4038;42.612;23.066;2023-03-14T14:08:45;21.00;;;19.50;;
7985;SDS011;4038;42.612;23.066;2023-03-14T14:11:14;21.17;;;19.77;;
7985;SDS011;4038;42.612;23.066;2023-03-14T14:13:41;21.13;;;19.73;;
7985;SDS011;4038;42.612;23.066;2023-03-14T14:16:07;21.85;;;20.25;;
7985;SDS011;4038;42.612;23.066;2023-03-14T14:18:33;21.65;;;19.85;;
7985;SDS011;4038;42.612;23.066;2023-03-14T14:20:59;21.33;;;19.92;;
7985;SDS011;4038;42.612;23.066;2023-03-14T14:23:25;21.73;;;20.33;;
7985;SDS011;4038;42.612;23.066;2023-03-14T14:25:53;21.42;;;19.92;;
7985;SDS011;4038;42.612;23.066;2023-03-14T14:28:24;21.50;;;20.00;;
7985;SDS011;4038;42.612;23.066;2023-03-14T14:34:02;21.10;;;19.70;;
7985;SDS011;4038;42.612;23.066;2023-03-14T14:36:38;21.20;;;19.67;;
7985;SDS011;4038;42.612;23.066;2023-03-14T14:39:05;20.88;;;19.48;;
7985;SDS011;4038;42.612;23.066;2023-03-14T14:41:35;21.38;;;19.88;;
7985;SDS011;4038;42.612;23.066;2023-03-14T14:44:01;21.17;;;19.65;;
7985;SDS011;4038;42.612;23.066;2023-03-14T14:46:28;22.02;;;20.45;;
7985;SDS011;4038;42.612;23.066;2023-03-14T14:48:55;22.98;;;21.58;;
7985;SDS011;4038;42.612;23.066;2023-03-14T14:51:25;22.60;;;21.30;;
7985;SDS011;4038;42.612;23.066;2023-03-14T14:53:59;22.38;;;20.88;;
7985;SDS011;4038;42.612;23.066;2023-03-14T14:56:25;20.67;;;19.38;;
7985;SDS011;4038;42.612;23.066;2023-03-14T14:58:55;21.83;;;20.15;;
7985;SDS011;4038;42.612;23.066;2023-03-14T15:01:23;22.40;;;20.90;;
7985;SDS011;4038;42.612;23.066;2023-03-14T15:03:50;23.00;;;20.98;;
7985;SDS011;4038;42.612;23.066;2023-03-14T15:06:16;23.67;;;22.08;;
7985;SDS011;4038;42.612;23.066;2023-03-14T15:08:42;22.15;;;20.65;;
7985;SDS011;4038;42.612;23.066;2023-03-14T15:11:09;21.60;;;20.20;;
7985;SDS011;4038;42.612;23.066;2023-03-14T15:13:40;22.17;;;20.67;;
7985;SDS011;4038;42.612;23.066;2023-03-14T15:16:08;21.50;;;20.10;;
7985;SDS011;4038;42.612;23.066;2023-03-14T15:18:34;21.77;;;20.27;;
7985;SDS011;4038;42.612;23.066;2023-03-14T15:20:59;21.80;;;20.50;;
7985;SDS011;4038;42.612;23.066;2023-03-14T15:23:25;22.90;;;21.40;;
7985;SDS011;4038;42.612;23.066;2023-03-14T15:25:50;24.90;;;22.85;;